sensor_id;sensor_type;location;lat;lon;timestamp;pressure;altitude;pressure_sealevel;temperature;humidity
79686;BME280;69153;47.918;11.428;2024-02-23T00:00:49;93356.03;;;8.42;65.32
79686;BME280;69153;47.918;11.428;2024-02-23T00:03:14;93356.38;;;8.58;64.99
79686;BME280;69153;47.918;11.428;2024-02-23T00:05:39;93372.78;;;8.86;63.44
79686;BME280;69153;47.918;11.428;2024-02-23T00:08:06;93364.25;;;8.68;63.56
79686;BME280;69153;47.918;11.428;2024-02-23T00:10:32;93375.22;;;8.75;63.75
79686;BME280;69153;47.918;11.428;2024-02-23T00:12:57;93380.13;;;8.58;62.92
79686;BME280;69153;47.918;11.428;2024-02-23T00:15:23;93384.03;;;8.30;65.08
79686;BME280;69153;47.918;11.428;2024-02-23T00:17:50;93380.75;;;8.53;64.86
79686;BME280;69153;47.918;11.428;2024-02-23T00:20:15;93380.41;;;8.60;64.26
79686;BME280;69153;47.918;11.428;2024-02-23T00:22:41;93377.09;;;8.51;65.34
79686;BME280;69153;47.918;11.428;2024-02-23T00:25:06;93366.25;;;8.49;64.43
79686;BME280;69153;47.918;11.428;2024-02-23T00:27:33;93363.84;;;8.60;64.12
79686;BME280;69153;47.918;11.428;2024-02-23T00:29:58;93354.78;;;8.52;64.52
79686;BME280;69153;47.918;11.428;2024-02-23T00:32:23;93368.78;;;8.43;64.47
79686;BME280;69153;47.918;11.428;2024-02-23T00:34:49;93366.66;;;8.14;65.50
79686;BME280;69153;47.918;11.428;2024-02-23T00:37:14;93369.16;;;8.51;65.13
79686;BME280;69153;47.918;11.428;2024-02-23T00:39:40;93365.06;;;8.50;64.41
79686;BME280;69153;47.918;11.428;2024-02-23T00:42:06;93368.59;;;8.47;64.64
79686;BME280;69153;47.918;11.428;2024-02-23T00:44:31;93381.75;;;8.14;64.65
79686;BME280;69153;47.918;11.428;2024-02-23T00:46:56;93384.28;;;8.50;63.97
79686;BME280;69153;47.918;11.428;2024-02-23T00:49:28;93392.25;;;8.32;63.03
79686;BME280;69153;47.918;11.428;2024-02-23T00:51:54;93386.75;;;7.94;64.12
79686;BME280;69153;47.918;11.428;2024-02-23T00:54:20;93386.44;;;8.10;64.43
79686;BME280;69153;47.918;11.428;2024-02-23T00:56:46;93389.03;;;8.28;63.86
79686;BME280;69153;47.918;11.428;2024-02-23T00:59:11;93392.19;;;8.50;63.00
79686;BME280;69153;47.918;11.428;2024-02-23T01:01:37;93392.69;;;8.40;63.13
79686;BME280;69153;47.918;11.428;2024-02-23T01:04:02;93400.84;;;8.51;62.59
79686;BME280;69153;47.918;11.428;2024-02-23T01:06:28;93398.53;;;8.44;63.58
79686;BME280;69153;47.918;11.428;2024-02-23T01:08:53;93408.97;;;8.29;63.08
79686;BME280;69153;47.918;11.428;2024-02-23T01:11:19;93412.16;;;8.42;63.34
79686;BME280;69153;47.918;11.428;2024-02-23T01:13:45;93404.75;;;8.13;63.97
79686;BME280;69153;47.918;11.428;2024-02-23T01:16:10;93397.00;;;8.01;64.44
79686;BME280;69153;47.918;11.428;2024-02-23T01:18:35;93395.25;;;7.98;64.84
79686;BME280;69153;47.918;11.428;2024-02-23T01:21:01;93398.75;;;8.13;63.67
79686;BME280;69153;47.918;11.428;2024-02-23T01:23:26;93406.69;;;8.04;63.49
79686;BME280;69153;47.918;11.428;2024-02-23T01:25:52;93407.13;;;8.02;63.99
79686;BME280;69153;47.918;11.428;2024-02-23T01:28:17;93404.63;;;7.99;63.83
79686;BME280;69153;47.918;11.428;2024-02-23T01:30:42;93415.47;;;8.01;63.54
79686;BME280;69153;47.918;11.428;2024-02-23T01:33:08;93412.94;;;8.06;63.35
79686;BME280;69153;47.918;11.428;2024-02-23T01:35:33;93415.19;;;7.89;62.96
79686;BME280;69153;47.918;11.428;2024-02-23T01:37:59;93411.69;;;7.83;63.82
79686;BME280;69153;47.918;11.428;2024-02-23T01:40:24;93416.19;;;8.01;62.79
79686;BME280;69153;47.918;11.428;2024-02-23T01:43:03;93408.66;;;8.18;62.36
79686;BME280;69153;47.918;11.428;2024-02-23T01:45:30;93412.81;;;8.10;62.46
79686;BME280;69153;47.918;11.428;2024-02-23T01:47:56;93422.03;;;8.14;61.69
79686;BME280;69153;47.918;11.428;2024-02-23T01:50:23;93412.47;;;8.26;61.74
79686;BME280;69153;47.918;11.428;2024-02-23T01:52:49;93422.66;;;8.00;62.91
79686;BME280;69153;47.918;11.428;2024-02-23T01:55:18;93416.34;;;7.98;62.38
79686;BME280;69153;47.918;11.428;2024-02-23T01:57:45;93418.13;;;7.92;62.33
79686;BME280;69153;47.918;11.428;2024-02-23T02:00:16;93422.94;;;8.02;61.60
79686;BME280;69153;47.918;11.428;2024-02-23T02:02:43;93414.59;;;7.85;61.48
79686;BME280;69153;47.918;11.428;2024-02-23T02:05:08;93414.34;;;7.74;60.60
79686;BME280;69153;47.918;11.428;2024-02-23T02:07:34;93415.63;;;7.97;60.54
79686;BME280;69153;47.918;11.428;2024-02-23T02:09:59;93422.31;;;8.07;59.90
79686;BME280;69153;47.918;11.428;2024-02-23T02:12:28;93411.97;;;8.04;58.72
79686;BME280;69153;47.918;11.428;2024-02-23T02:14:54;93406.50;;;8.07;58.55
79686;BME280;69153;47.918;11.428;2024-02-23T02:17:21;93414.75;;;7.91;58.74
79686;BME280;69153;47.918;11.428;2024-02-23T02:19:50;93425.59;;;7.75;59.00
79686;BME280;69153;47.918;11.428;2024-02-23T02:22:15;93424.16;;;7.74;59.01
79686;BME280;69153;47.918;11.428;2024-02-23T02:24:41;93433.34;;;7.69;58.91
79686;BME280;69153;47.918;11.428;2024-02-23T02:27:09;93416.81;;;7.87;58.69
79686;BME280;69153;47.918;11.428;2024-02-23T02:29:37;93420.88;;;8.06;58.45
79686;BME280;69153;47.918;11.428;2024-02-23T02:32:03;93415.44;;;8.10;57.02
79686;BME280;69153;47.918;11.428;2024-02-23T02:34:28;93424.97;;;8.16;56.94
79686;BME280;69153;47.918;11.428;2024-02-23T02:36:55;93418.94;;;8.25;56.64
79686;BME280;69153;47.918;11.428;2024-02-23T02:39:21;93432.25;;;8.21;56.56
79686;BME280;69153;47.918;11.428;2024-02-23T02:41:48;93428.63;;;8.10;56.16
79686;BME280;69153;47.918;11.428;2024-02-23T02:44:14;93428.16;;;8.30;56.01
79686;BME280;69153;47.918;11.428;2024-02-23T02:46:40;93422.72;;;8.42;55.22
79686;BME280;69153;47.918;11.428;2024-02-23T02:49:06;93432.25;;;8.31;55.90
79686;BME280;69153;47.918;11.428;2024-02-23T02:51:31;93429.47;;;8.43;55.89
79686;BME280;69153;47.918;11.428;2024-02-23T02:53:56;93428.69;;;8.52;54.92
79686;BME280;69153;47.918;11.428;2024-02-23T02:56:22;93428.53;;;8.55;55.19
79686;BME280;69153;47.918;11.428;2024-02-23T02:58:47;93432.31;;;8.64;54.01
79686;BME280;69153;47.918;11.428;2024-02-23T03:01:13;93433.34;;;8.57;54.44
79686;BME280;69153;47.918;11.428;2024-02-23T03:03:38;93441.16;;;8.51;54.33
79686;BME280;69153;47.918;11.428;2024-02-23T03:06:04;93430.34;;;8.22;54.31
79686;BME280;69153;47.918;11.428;2024-02-23T03:08:31;93431.59;;;8.03;54.82
79686;BME280;69153;47.918;11.428;2024-02-23T03:10:56;93429.91;;;8.33;54.47
79686;BME280;69153;47.918;11.428;2024-02-23T03:13:22;93440.47;;;8.33;53.47
79686;BME280;69153;47.918;11.428;2024-02-23T03:15:48;93440.59;;;8.47;53.41
79686;BME280;69153;47.918;11.428;2024-02-23T03:18:13;93440.75;;;8.35;53.77
79686;BME280;69153;47.918;11.428;2024-02-23T03:20:41;93432.50;;;8.51;53.37
79686;BME280;69153;47.918;11.428;2024-02-23T03:23:07;93441.00;;;8.55;52.72
79686;BME280;69153;47.918;11.428;2024-02-23T03:25:32;93439.59;;;8.78;52.50
79686;BME280;69153;47.918;11.428;2024-02-23T03:27:58;93439.53;;;8.87;52.37
79686;BME280;69153;47.918;11.428;2024-02-23T03:30:24;93445.97;;;8.95;52.45
79686;BME280;69153;47.918;11.428;2024-02-23T03:32:49;93436.38;;;8.32;53.25
79686;BME280;69153;47.918;11.428;2024-02-23T03:35:15;93462.06;;;7.85;53.96
79686;BME280;69153;47.918;11.428;2024-02-23T03:37:40;93441.28;;;7.87;54.94
79686;BME280;69153;47.918;11.428;2024-02-23T03:40:06;93441.56;;;7.89;55.75
79686;BME280;69153;47.918;11.428;2024-02-23T03:42:32;93436.38;;;8.22;54.71
79686;BME280;69153;47.918;11.428;2024-02-23T03:44:57;93438.72;;;8.30;54.13
79686;BME280;69153;47.918;11.428;2024-02-23T03:47:23;93440.31;;;8.18;55.09
79686;BME280;69153;47.918;11.428;2024-02-23T03:49:48;93438.88;;;8.26;54.59
79686;BME280;69153;47.918;11.428;2024-02-23T03:52:14;93446.91;;;8.41;54.82
79686;BME280;69153;47.918;11.428;2024-02-23T03:54:39;93441.34;;;8.39;54.80
79686;BME280;69153;47.918;11.428;2024-02-23T03:57:05;93446.50;;;8.15;55.30
79686;BME280;69153;47.918;11.428;2024-02-23T03:59:30;93444.28;;;8.22;55.56
79686;BME280;69153;47.918;11.428;2024-02-23T04:01:56;93450.72;;;8.21;55.55
79686;BME280;69153;47.918;11.428;2024-02-23T04:04:21;93443.44;;;8.07;55.80
79686;BME280;69153;47.918;11.428;2024-02-23T04:06:47;93447.50;;;8.27;55.53
79686;BME280;69153;47.918;11.428;2024-02-23T04:09:12;93443.69;;;8.37;55.44
79686;BME280;69153;47.918;11.428;2024-02-23T04:11:38;93442.81;;;8.31;55.49
79686;BME280;69153;47.918;11.428;2024-02-23T04:14:03;93434.16;;;8.39;55.26
79686;BME280;69153;47.918;11.428;2024-02-23T04:16:30;93438.72;;;8.20;55.47
79686;BME280;69153;47.918;11.428;2024-02-23T04:18:56;93444.78;;;7.84;56.70
79686;BME280;69153;47.918;11.428;2024-02-23T04:21:22;93445.78;;;7.96;56.37
79686;BME280;69153;47.918;11.428;2024-02-23T04:23:47;93445.38;;;7.88;56.40
79686;BME280;69153;47.918;11.428;2024-02-23T04:26:13;93440.69;;;7.83;56.68
79686;BME280;69153;47.918;11.428;2024-02-23T04:28:40;93461.47;;;7.72;56.27
79686;BME280;69153;47.918;11.428;2024-02-23T04:31:06;93453.13;;;7.92;55.70
79686;BME280;69153;47.918;11.428;2024-02-23T04:33:31;93454.72;;;8.08;55.49
79686;BME280;69153;47.918;11.428;2024-02-23T04:35:58;93451.94;;;8.11;54.47
79686;BME280;69153;47.918;11.428;2024-02-23T04:38:24;93452.69;;;7.75;55.40
79686;BME280;69153;47.918;11.428;2024-02-23T04:40:49;93461.31;;;7.67;55.38
79686;BME280;69153;47.918;11.428;2024-02-23T04:43:15;93457.81;;;7.51;56.39
79686;BME280;69153;47.918;11.428;2024-02-23T04:45:40;93460.47;;;7.51;56.37
79686;BME280;69153;47.918;11.428;2024-02-23T04:48:06;93461.78;;;7.74;56.39
79686;BME280;69153;47.918;11.428;2024-02-23T04:50:31;93465.13;;;7.84;56.47
79686;BME280;69153;47.918;11.428;2024-02-23T04:52:57;93447.88;;;7.74;55.97
79686;BME280;69153;47.918;11.428;2024-02-23T04:55:23;93456.34;;;7.50;57.03
79686;BME280;69153;47.918;11.428;2024-02-23T04:57:48;93458.81;;;7.45;57.14
79686;BME280;69153;47.918;11.428;2024-02-23T05:00:14;93448.88;;;7.40;56.90
79686;BME280;69153;47.918;11.428;2024-02-23T05:02:39;93443.75;;;7.73;56.53
79686;BME280;69153;47.918;11.428;2024-02-23T05:05:06;93453.88;;;7.74;54.92
79686;BME280;69153;47.918;11.428;2024-02-23T05:07:31;93450.50;;;7.65;55.24
79686;BME280;69153;47.918;11.428;2024-02-23T05:09:57;93456.06;;;7.76;55.20
79686;BME280;69153;47.918;11.428;2024-02-23T05:12:23;93459.28;;;7.71;54.92
79686;BME280;69153;47.918;11.428;2024-02-23T05:14:48;93461.59;;;7.32;55.52
79686;BME280;69153;47.918;11.428;2024-02-23T05:17:14;93464.16;;;7.05;56.20
79686;BME280;69153;47.918;11.428;2024-02-23T05:19:54;93464.50;;;6.76;56.99
79686;BME280;69153;47.918;11.428;2024-02-23T05:22:20;93475.22;;;6.51;56.34
79686;BME280;69153;47.918;11.428;2024-02-23T05:24:45;93454.75;;;6.45;56.93
79686;BME280;69153;47.918;11.428;2024-02-23T05:27:11;93450.97;;;6.47;57.00
79686;BME280;69153;47.918;11.428;2024-02-23T05:29:36;93451.53;;;6.81;56.27
79686;BME280;69153;47.918;11.428;2024-02-23T05:32:02;93454.44;;;6.74;56.14
79686;BME280;69153;47.918;11.428;2024-02-23T05:34:28;93458.88;;;6.87;55.85
79686;BME280;69153;47.918;11.428;2024-02-23T05:36:53;93466.38;;;7.06;55.20
79686;BME280;69153;47.918;11.428;2024-02-23T05:39:19;93465.09;;;7.20;54.15
79686;BME280;69153;47.918;11.428;2024-02-23T05:41:44;93470.06;;;7.27;54.07
79686;BME280;69153;47.918;11.428;2024-02-23T05:44:10;93459.53;;;7.27;53.81
79686;BME280;69153;47.918;11.428;2024-02-23T05:46:36;93477.22;;;7.08;53.89
79686;BME280;69153;47.918;11.428;2024-02-23T05:49:02;93473.88;;;7.26;53.18
79686;BME280;69153;47.918;11.428;2024-02-23T05:51:29;93478.38;;;7.07;54.07
79686;BME280;69153;47.918;11.428;2024-02-23T05:53:56;93479.91;;;7.45;52.97
79686;BME280;69153;47.918;11.428;2024-02-23T05:56:21;93483.56;;;7.47;53.31
79686;BME280;69153;47.918;11.428;2024-02-23T05:58:49;93491.06;;;7.58;53.83
79686;BME280;69153;47.918;11.428;2024-02-23T06:01:14;93487.69;;;7.67;52.75
79686;BME280;69153;47.918;11.428;2024-02-23T06:03:40;93488.84;;;7.47;52.68
79686;BME280;69153;47.918;11.428;2024-02-23T06:06:08;93487.81;;;7.54;52.99
79686;BME280;69153;47.918;11.428;2024-02-23T06:08:34;93496.72;;;7.29;53.56
79686;BME280;69153;47.918;11.428;2024-02-23T06:11:00;93488.59;;;7.05;54.78
79686;BME280;69153;47.918;11.428;2024-02-23T06:13:25;93493.13;;;7.05;54.95
79686;BME280;69153;47.918;11.428;2024-02-23T06:15:50;93495.81;;;7.14;54.83
79686;BME280;69153;47.918;11.428;2024-02-23T06:18:16;93502.06;;;7.07;55.13
79686;BME280;69153;47.918;11.428;2024-02-23T06:20:42;93505.22;;;7.42;54.20
79686;BME280;69153;47.918;11.428;2024-02-23T06:23:07;93504.09;;;7.71;53.46
79686;BME280;69153;47.918;11.428;2024-02-23T06:25:32;93500.84;;;7.48;54.50
79686;BME280;69153;47.918;11.428;2024-02-23T06:27:58;93509.00;;;7.32;54.83
79686;BME280;69153;47.918;11.428;2024-02-23T06:30:23;93516.09;;;7.04;55.21
79686;BME280;69153;47.918;11.428;2024-02-23T06:32:49;93511.88;;;7.07;55.39
79686;BME280;69153;47.918;11.428;2024-02-23T06:35:14;93508.56;;;6.85;56.20
79686;BME280;69153;47.918;11.428;2024-02-23T06:37:40;93501.50;;;7.12;55.64
79686;BME280;69153;47.918;11.428;2024-02-23T06:40:06;93507.94;;;7.11;55.78
79686;BME280;69153;47.918;11.428;2024-02-23T06:42:33;93508.38;;;7.10;55.89
79686;BME280;69153;47.918;11.428;2024-02-23T06:44:58;93506.19;;;7.17;55.76
79686;BME280;69153;47.918;11.428;2024-02-23T06:47:23;93506.41;;;7.50;55.09
79686;BME280;69153;47.918;11.428;2024-02-23T06:49:50;93517.56;;;7.64;54.20
79686;BME280;69153;47.918;11.428;2024-02-23T06:52:15;93527.50;;;7.60;54.36
79686;BME280;69153;47.918;11.428;2024-02-23T06:54:41;93515.81;;;7.70;53.95
79686;BME280;69153;47.918;11.428;2024-02-23T06:57:07;93523.13;;;7.84;53.87
79686;BME280;69153;47.918;11.428;2024-02-23T06:59:32;93531.19;;;7.71;53.97
79686;BME280;69153;47.918;11.428;2024-02-23T07:01:58;93529.28;;;7.63;53.51
79686;BME280;69153;47.918;11.428;2024-02-23T07:04:23;93529.72;;;7.61;54.00
79686;BME280;69153;47.918;11.428;2024-02-23T07:06:49;93530.56;;;7.49;54.21
79686;BME280;69153;47.918;11.428;2024-02-23T07:09:14;93534.75;;;7.28;54.74
79686;BME280;69153;47.918;11.428;2024-02-23T07:11:40;93541.91;;;7.18;55.89
79686;BME280;69153;47.918;11.428;2024-02-23T07:14:08;93542.53;;;7.32;54.77
79686;BME280;69153;47.918;11.428;2024-02-23T07:16:37;93549.81;;;7.28;55.17
79686;BME280;69153;47.918;11.428;2024-02-23T07:19:04;93547.59;;;7.17;55.03
79686;BME280;69153;47.918;11.428;2024-02-23T07:21:30;93547.78;;;7.32;54.75
79686;BME280;69153;47.918;11.428;2024-02-23T07:23:55;93558.53;;;7.46;55.18
79686;BME280;69153;47.918;11.428;2024-02-23T07:26:21;93555.16;;;7.06;55.77
79686;BME280;69153;47.918;11.428;2024-02-23T07:28:48;93552.56;;;7.15;55.76
79686;BME280;69153;47.918;11.428;2024-02-23T07:31:14;93554.47;;;7.14;56.16
79686;BME280;69153;47.918;11.428;2024-02-23T07:33:41;93554.47;;;7.14;56.04
79686;BME280;69153;47.918;11.428;2024-02-23T07:36:07;93553.75;;;7.14;56.05
79686;BME280;69153;47.918;11.428;2024-02-23T07:38:34;93549.81;;;7.28;55.68
79686;BME280;69153;47.918;11.428;2024-02-23T07:40:59;93554.53;;;7.42;55.37
79686;BME280;69153;47.918;11.428;2024-02-23T07:43:25;93555.03;;;7.68;54.91
79686;BME280;69153;47.918;11.428;2024-02-23T07:45:51;93550.19;;;7.57;54.24
79686;BME280;69153;47.918;11.428;2024-02-23T07:48:17;93544.44;;;7.40;52.65
79686;BME280;69153;47.918;11.428;2024-02-23T07:50:42;93544.91;;;7.39;53.81
79686;BME280;69153;47.918;11.428;2024-02-23T07:53:08;93544.75;;;7.42;52.49
79686;BME280;69153;47.918;11.428;2024-02-23T07:55:33;93532.50;;;7.67;51.50
79686;BME280;69153;47.918;11.428;2024-02-23T07:57:58;93529.16;;;7.84;50.44
79686;BME280;69153;47.918;11.428;2024-02-23T08:00:27;93533.97;;;7.95;49.93
79686;BME280;69153;47.918;11.428;2024-02-23T08:02:53;93528.72;;;8.04;49.49
79686;BME280;69153;47.918;11.428;2024-02-23T08:05:22;93513.91;;;8.25;49.49
79686;BME280;69153;47.918;11.428;2024-02-23T08:07:48;93512.28;;;8.28;49.23
79686;BME280;69153;47.918;11.428;2024-02-23T08:10:14;93522.72;;;8.40;48.87
79686;BME280;69153;47.918;11.428;2024-02-23T08:12:39;93550.53;;;8.50;49.19
79686;BME280;69153;47.918;11.428;2024-02-23T08:15:06;93556.72;;;8.29;49.89
79686;BME280;69153;47.918;11.428;2024-02-23T08:17:31;93526.22;;;8.37;51.03
79686;BME280;69153;47.918;11.428;2024-02-23T08:19:57;93529.59;;;8.38;50.79
79686;BME280;69153;47.918;11.428;2024-02-23T08:22:22;93542.50;;;8.17;51.27
79686;BME280;69153;47.918;11.428;2024-02-23T08:24:49;93529.47;;;8.05;52.00
79686;BME280;69153;47.918;11.428;2024-02-23T08:27:14;93529.53;;;7.56;53.49
79686;BME280;69153;47.918;11.428;2024-02-23T08:29:40;93516.19;;;7.32;54.41
79686;BME280;69153;47.918;11.428;2024-02-23T08:32:06;93515.03;;;6.93;55.37
79686;BME280;69153;47.918;11.428;2024-02-23T08:34:32;93520.50;;;6.76;56.21
79686;BME280;69153;47.918;11.428;2024-02-23T08:37:00;93522.56;;;7.12;56.10
79686;BME280;69153;47.918;11.428;2024-02-23T08:39:26;93514.28;;;6.83;56.00
79686;BME280;69153;47.918;11.428;2024-02-23T08:41:52;93515.25;;;7.07;55.49
79686;BME280;69153;47.918;11.428;2024-02-23T08:44:18;93516.91;;;7.23;54.85
79686;BME280;69153;47.918;11.428;2024-02-23T08:46:44;93542.28;;;7.48;54.04
79686;BME280;69153;47.918;11.428;2024-02-23T08:49:09;93553.31;;;7.65;52.65
79686;BME280;69153;47.918;11.428;2024-02-23T08:51:34;93563.97;;;7.70;51.54
79686;BME280;69153;47.918;11.428;2024-02-23T08:54:00;93564.19;;;7.27;53.70
79686;BME280;69153;47.918;11.428;2024-02-23T08:56:31;93573.38;;;6.91;56.33
79686;BME280;69153;47.918;11.428;2024-02-23T08:58:57;93575.34;;;6.47;59.67
79686;BME280;69153;47.918;11.428;2024-02-23T09:01:23;93586.50;;;6.17;61.26
79686;BME280;69153;47.918;11.428;2024-02-23T09:03:48;93589.09;;;6.29;61.88
79686;BME280;69153;47.918;11.428;2024-02-23T09:06:14;93596.59;;;6.18;62.54
79686;BME280;69153;47.918;11.428;2024-02-23T09:08:39;93602.28;;;6.17;62.89
79686;BME280;69153;47.918;11.428;2024-02-23T09:11:06;93602.59;;;6.19;62.21
79686;BME280;69153;47.918;11.428;2024-02-23T09:13:31;93607.38;;;5.98;62.91
79686;BME280;69153;47.918;11.428;2024-02-23T09:15:57;93605.09;;;5.75;63.24
79686;BME280;69153;47.918;11.428;2024-02-23T09:18:23;93604.38;;;6.22;62.02
79686;BME280;69153;47.918;11.428;2024-02-23T09:20:48;93604.56;;;6.27;61.45
79686;BME280;69153;47.918;11.428;2024-02-23T09:23:13;93616.53;;;6.28;60.86
79686;BME280;69153;47.918;11.428;2024-02-23T09:25:39;93616.28;;;6.48;59.68
79686;BME280;69153;47.918;11.428;2024-02-23T09:28:05;93618.50;;;6.37;60.12
79686;BME280;69153;47.918;11.428;2024-02-23T09:30:30;93626.44;;;6.24;60.48
79686;BME280;69153;47.918;11.428;2024-02-23T09:32:56;93613.53;;;6.17;61.01
79686;BME280;69153;47.918;11.428;2024-02-23T09:35:21;93614.03;;;5.90;61.64
79686;BME280;69153;47.918;11.428;2024-02-23T09:37:47;93623.41;;;5.66;62.76
79686;BME280;69153;47.918;11.428;2024-02-23T09:40:14;93622.22;;;5.80;62.29
79686;BME280;69153;47.918;11.428;2024-02-23T09:42:41;93621.63;;;6.23;61.84
79686;BME280;69153;47.918;11.428;2024-02-23T09:45:08;93623.72;;;6.50;60.30
79686;BME280;69153;47.918;11.428;2024-02-23T09:47:36;93614.72;;;6.03;60.40
79686;BME280;69153;47.918;11.428;2024-02-23T09:50:04;93615.50;;;5.91;61.07
79686;BME280;69153;47.918;11.428;2024-02-23T09:52:29;93611.22;;;6.19;60.64
79686;BME280;69153;47.918;11.428;2024-02-23T09:54:55;93624.25;;;6.23;60.84
79686;BME280;69153;47.918;11.428;2024-02-23T09:57:20;93631.25;;;6.04;61.69
79686;BME280;69153;47.918;11.428;2024-02-23T09:59:48;93621.28;;;5.73;62.62
79686;BME280;69153;47.918;11.428;2024-02-23T10:02:16;93624.09;;;6.04;62.40
79686;BME280;69153;47.918;11.428;2024-02-23T10:04:43;93616.59;;;6.37;61.00
79686;BME280;69153;47.918;11.428;2024-02-23T10:07:09;93605.94;;;5.72;62.30
79686;BME280;69153;47.918;11.428;2024-02-23T10:09:35;93600.19;;;5.64;63.40
79686;BME280;69153;47.918;11.428;2024-02-23T10:12:02;93604.47;;;5.96;62.42
79686;BME280;69153;47.918;11.428;2024-02-23T10:14:27;93610.25;;;6.26;61.73
79686;BME280;69153;47.918;11.428;2024-02-23T10:16:53;93604.06;;;6.20;61.75
79686;BME280;69153;47.918;11.428;2024-02-23T10:19:20;93602.75;;;6.59;60.60
79686;BME280;69153;47.918;11.428;2024-02-23T10:21:46;93603.75;;;6.83;59.11
79686;BME280;69153;47.918;11.428;2024-02-23T10:24:15;93610.75;;;6.77;58.43
79686;BME280;69153;47.918;11.428;2024-02-23T10:26:41;93612.81;;;6.82;59.13
79686;BME280;69153;47.918;11.428;2024-02-23T10:29:07;93604.38;;;6.65;59.00
79686;BME280;69153;47.918;11.428;2024-02-23T10:31:35;93614.19;;;6.87;59.00
79686;BME280;69153;47.918;11.428;2024-02-23T10:34:11;93617.94;;;7.07;57.78
79686;BME280;69153;47.918;11.428;2024-02-23T10:36:42;93635.34;;;6.83;58.30
79686;BME280;69153;47.918;11.428;2024-02-23T10:39:09;93633.31;;;6.43;56.76
79686;BME280;69153;47.918;11.428;2024-02-23T10:41:35;93620.53;;;6.33;57.03
79686;BME280;69153;47.918;11.428;2024-02-23T10:44:03;93615.84;;;6.15;59.29
79686;BME280;69153;47.918;11.428;2024-02-23T10:46:31;93622.59;;;6.16;58.91
79686;BME280;69153;47.918;11.428;2024-02-23T10:48:58;93618.06;;;6.38;56.85
79686;BME280;69153;47.918;11.428;2024-02-23T10:51:25;93616.75;;;6.34;58.41
79686;BME280;69153;47.918;11.428;2024-02-23T10:53:52;93623.53;;;6.44;59.37
79686;BME280;69153;47.918;11.428;2024-02-23T10:56:18;93620.06;;;6.69;58.00
79686;BME280;69153;47.918;11.428;2024-02-23T10:58:44;93624.16;;;6.14;58.24
79686;BME280;69153;47.918;11.428;2024-02-23T11:01:11;93633.91;;;5.79;60.03
79686;BME280;69153;47.918;11.428;2024-02-23T11:03:41;93631.88;;;6.08;59.72
79686;BME280;69153;47.918;11.428;2024-02-23T11:06:08;93632.34;;;6.50;58.80
79686;BME280;69153;47.918;11.428;2024-02-23T11:08:34;93622.53;;;6.29;58.80
79686;BME280;69153;47.918;11.428;2024-02-23T11:11:11;93634.25;;;6.15;58.18
79686;BME280;69153;47.918;11.428;2024-02-23T11:13:38;93642.97;;;5.52;59.86
79686;BME280;69153;47.918;11.428;2024-02-23T11:16:08;93644.94;;;5.48;59.84
79686;BME280;69153;47.918;11.428;2024-02-23T11:18:38;93643.59;;;5.44;60.08
79686;BME280;69153;47.918;11.428;2024-02-23T11:21:05;93648.22;;;5.52;59.66
79686;BME280;69153;47.918;11.428;2024-02-23T11:23:45;93642.53;;;5.16;60.42
79686;BME280;69153;47.918;11.428;2024-02-23T11:26:11;93643.44;;;4.96;60.88
79686;BME280;69153;47.918;11.428;2024-02-23T11:31:18;93638.53;;;5.24;60.69
79686;BME280;69153;47.918;11.428;2024-02-23T11:33:49;93635.78;;;5.02;60.44
79686;BME280;69153;47.918;11.428;2024-02-23T11:36:29;93631.50;;;5.21;61.52
79686;BME280;69153;47.918;11.428;2024-02-23T11:38:57;93636.63;;;5.62;59.29
79686;BME280;69153;47.918;11.428;2024-02-23T11:41:23;93631.81;;;5.35;58.84
79686;BME280;69153;47.918;11.428;2024-02-23T11:43:50;93628.44;;;5.60;58.84
79686;BME280;69153;47.918;11.428;2024-02-23T11:46:16;93627.81;;;5.82;58.20
79686;BME280;69153;47.918;11.428;2024-02-23T11:48:43;93623.28;;;5.82;57.23
79686;BME280;69153;47.918;11.428;2024-02-23T11:51:09;93624.84;;;5.80;57.00
79686;BME280;69153;47.918;11.428;2024-02-23T11:53:36;93620.69;;;5.57;57.24
79686;BME280;69153;47.918;11.428;2024-02-23T11:56:04;93616.03;;;5.61;56.91
79686;BME280;69153;47.918;11.428;2024-02-23T11:58:30;93610.38;;;5.62;57.14
79686;BME280;69153;47.918;11.428;2024-02-23T12:00:55;93613.34;;;5.39;57.55
79686;BME280;69153;47.918;11.428;2024-02-23T12:03:22;93610.81;;;5.23;58.58
79686;BME280;69153;47.918;11.428;2024-02-23T12:05:49;93617.00;;;5.16;58.85
79686;BME280;69153;47.918;11.428;2024-02-23T12:08:15;93621.09;;;5.05;59.81
79686;BME280;69153;47.918;11.428;2024-02-23T12:10:41;93632.03;;;5.16;59.53
79686;BME280;69153;47.918;11.428;2024-02-23T12:13:07;93625.63;;;5.55;58.86
79686;BME280;69153;47.918;11.428;2024-02-23T12:15:33;93626.66;;;5.70;58.30
79686;BME280;69153;47.918;11.428;2024-02-23T12:17:58;93610.88;;;5.83;57.70
79686;BME280;69153;47.918;11.428;2024-02-23T12:20:25;93606.56;;;5.89;58.01
79686;BME280;69153;47.918;11.428;2024-02-23T12:22:50;93598.84;;;5.34;58.99
79686;BME280;69153;47.918;11.428;2024-02-23T12:25:19;93602.09;;;5.38;59.61
79686;BME280;69153;47.918;11.428;2024-02-23T12:27:45;93604.94;;;5.19;59.42
79686;BME280;69153;47.918;11.428;2024-02-23T12:30:14;93589.81;;;5.23;60.17
79686;BME280;69153;47.918;11.428;2024-02-23T12:32:40;93589.56;;;5.68;58.36
79686;BME280;69153;47.918;11.428;2024-02-23T12:35:06;93599.84;;;5.62;58.52
79686;BME280;69153;47.918;11.428;2024-02-23T12:37:34;93589.81;;;6.08;57.71
79686;BME280;69153;47.918;11.428;2024-02-23T12:40:00;93593.81;;;6.00;57.84
79686;BME280;69153;47.918;11.428;2024-02-23T12:42:26;93604.50;;;5.71;57.90
79686;BME280;69153;47.918;11.428;2024-02-23T12:44:51;93602.28;;;5.69;57.77
79686;BME280;69153;47.918;11.428;2024-02-23T12:47:17;93591.19;;;6.00;57.54
79686;BME280;69153;47.918;11.428;2024-02-23T12:49:42;93569.34;;;5.78;57.98
79686;BME280;69153;47.918;11.428;2024-02-23T12:52:08;93572.66;;;5.56;58.52
79686;BME280;69153;47.918;11.428;2024-02-23T12:54:33;93557.31;;;5.55;58.76
79686;BME280;69153;47.918;11.428;2024-02-23T12:56:59;93549.31;;;5.58;58.73